sensor_id;sensor_type;location;lat;lon;timestamp;P1;durP1;ratioP1;P2;durP2;ratioP2
7116;SDS011;3600;48.568;7.870;2022-07-29T00:02:15;3.67;;;3.22;;
7116;SDS011;3600;48.568;7.870;2022-07-29T00:04:42;5.72;;;3.38;;
7116;SDS011;3600;48.568;7.870;2022-07-29T00:07:08;4.03;;;3.65;;
7116;SDS011;3600;48.568;7.870;2022-07-29T00:09:37;4.22;;;3.10;;
7116;SDS011;3600;48.568;7.870;2022-07-29T00:12:16;3.60;;;2.65;;
7116;SDS011;3600;48.568;7.870;2022-07-29T00:14:52;4.88;;;3.70;;
7116;SDS011;3600;48.568;7.870;2022-07-29T00:17:20;4.55;;;4.00;;
7116;SDS011;3600;48.568;7.870;2022-07-29T00:19:46;3.70;;;3.40;;
7116;SDS011;3600;48.568;7.870;2022-07-29T00:22:14;4.07;;;3.67;;
7116;SDS011;3600;48.568;7.870;2022-07-29T00:24:41;4.20;;;3.63;;
7116;SDS011;3600;48.568;7.870;2022-07-29T00:27:08;3.63;;;3.33;;
7116;SDS011;3600;48.568;7.870;2022-07-29T00:29:34;3.75;;;3.08;;
7116;SDS011;3600;48.568;7.870;2022-07-29T00:32:01;5.43;;;3.40;;
7116;SDS011;3600;48.568;7.870;2022-07-29T00:34:29;3.80;;;3.47;;
7116;SDS011;3600;48.568;7.870;2022-07-29T00:37:14;4.95;;;3.60;;
7116;SDS011;3600;48.568;7.870;2022-07-29T00:39:41;4.10;;;3.80;;
7116;SDS011;3600;48.568;7.870;2022-07-29T00:42:08;3.78;;;3.47;;
7116;SDS011;3600;48.568;7.870;2022-07-29T00:44:39;4.03;;;3.70;;
7116;SDS011;3600;48.568;7.870;2022-07-29T00:47:07;4.00;;;3.70;;
7116;SDS011;3600;48.568;7.870;2022-07-29T00:49:38;6.00;;;4.22;;
7116;SDS011;3600;48.568;7.870;2022-07-29T00:52:07;4.32;;;3.95;;
7116;SDS011;3600;48.568;7.870;2022-07-29T00:54:34;4.63;;;4.22;;
7116;SDS011;3600;48.568;7.870;2022-07-29T00:57:10;7.45;;;4.15;;
7116;SDS011;3600;48.568;7.870;2022-07-29T00:59:37;6.68;;;4.60;;
7116;SDS011;3600;48.568;7.870;2022-07-29T01:02:04;5.20;;;4.13;;
7116;SDS011;3600;48.568;7.870;2022-07-29T01:04:31;4.75;;;4.35;;
7116;SDS011;3600;48.568;7.870;2022-07-29T01:06:59;6.38;;;4.55;;
7116;SDS011;3600;48.568;7.870;2022-07-29T01:09:28;4.63;;;4.22;;
7116;SDS011;3600;48.568;7.870;2022-07-29T01:12:12;4.93;;;4.50;;
7116;SDS011;3600;48.568;7.870;2022-07-29T01:14:42;5.22;;;4.53;;
7116;SDS011;3600;48.568;7.870;2022-07-29T01:17:10;5.07;;;4.68;;
7116;SDS011;3600;48.568;7.870;2022-07-29T01:25:12;6.85;;;5.65;;
7116;SDS011;3600;48.568;7.870;2022-07-29T01:30:50;5.57;;;5.07;;
7116;SDS011;3600;48.568;7.870;2022-07-29T01:33:20;6.25;;;5.60;;
7116;SDS011;3600;48.568;7.870;2022-07-29T01:36:10;6.35;;;5.53;;
7116;SDS011;3600;48.568;7.870;2022-07-29T01:38:41;5.88;;;5.22;;
7116;SDS011;3600;48.568;7.870;2022-07-29T01:41:11;6.22;;;5.40;;
7116;SDS011;3600;48.568;7.870;2022-07-29T01:43:52;6.28;;;5.68;;
7116;SDS011;3600;48.568;7.870;2022-07-29T01:46:27;5.75;;;5.25;;
7116;SDS011;3600;48.568;7.870;2022-07-29T01:49:08;7.03;;;5.30;;
7116;SDS011;3600;48.568;7.870;2022-07-29T01:54:32;5.45;;;4.85;;
7116;SDS011;3600;48.568;7.870;2022-07-29T01:57:13;6.30;;;5.70;;
7116;SDS011;3600;48.568;7.870;2022-07-29T01:59:43;8.20;;;5.65;;
7116;SDS011;3600;48.568;7.870;2022-07-29T02:02:14;7.55;;;5.93;;
7116;SDS011;3600;48.568;7.870;2022-07-29T02:04:42;6.95;;;5.40;;
7116;SDS011;3600;48.568;7.870;2022-07-29T02:07:15;7.50;;;5.70;;
7116;SDS011;3600;48.568;7.870;2022-07-29T02:09:45;6.18;;;5.63;;
7116;SDS011;3600;48.568;7.870;2022-07-29T02:12:16;6.32;;;5.80;;
7116;SDS011;3600;48.568;7.870;2022-07-29T02:14:45;6.30;;;5.70;;
7116;SDS011;3600;48.568;7.870;2022-07-29T02:17:15;6.93;;;5.40;;
7116;SDS011;3600;48.568;7.870;2022-07-29T02:19:56;5.20;;;4.75;;
7116;SDS011;3600;48.568;7.870;2022-07-29T02:22:26;6.30;;;5.50;;
7116;SDS011;3600;48.568;7.870;2022-07-29T02:24:56;6.13;;;5.43;;
7116;SDS011;3600;48.568;7.870;2022-07-29T02:27:26;5.47;;;5.07;;
7116;SDS011;3600;48.568;7.870;2022-07-29T02:29:54;5.43;;;4.93;;
7116;SDS011;3600;48.568;7.870;2022-07-29T02:32:24;5.38;;;4.88;;
7116;SDS011;3600;48.568;7.870;2022-07-29T02:34:53;5.72;;;5.22;;
7116;SDS011;3600;48.568;7.870;2022-07-29T02:37:21;5.60;;;5.10;;
7116;SDS011;3600;48.568;7.870;2022-07-29T02:39:50;5.53;;;4.80;;
7116;SDS011;3600;48.568;7.870;2022-07-29T02:42:20;5.40;;;4.90;;
7116;SDS011;3600;48.568;7.870;2022-07-29T02:44:49;6.45;;;5.13;;
7116;SDS011;3600;48.568;7.870;2022-07-29T02:47:17;5.97;;;5.18;;
7116;SDS011;3600;48.568;7.870;2022-07-29T02:52:25;5.50;;;5.10;;
7116;SDS011;3600;48.568;7.870;2022-07-29T02:58:02;5.63;;;5.03;;
7116;SDS011;3600;48.568;7.870;2022-07-29T03:00:37;6.38;;;5.88;;
7116;SDS011;3600;48.568;7.870;2022-07-29T03:03:07;6.00;;;5.25;;
7116;SDS011;3600;48.568;7.870;2022-07-29T03:05:38;7.15;;;5.28;;
7116;SDS011;3600;48.568;7.870;2022-07-29T03:08:06;6.20;;;5.60;;
7116;SDS011;3600;48.568;7.870;2022-07-29T03:10:36;6.80;;;6.20;;
7116;SDS011;3600;48.568;7.870;2022-07-29T03:13:05;6.25;;;5.63;;
7116;SDS011;3600;48.568;7.870;2022-07-29T03:15:34;7.00;;;5.40;;
7116;SDS011;3600;48.568;7.870;2022-07-29T03:18:02;6.22;;;5.13;;
7116;SDS011;3600;48.568;7.870;2022-07-29T03:20:29;7.75;;;5.75;;
7116;SDS011;3600;48.568;7.870;2022-07-29T03:22:56;6.50;;;5.85;;
7116;SDS011;3600;48.568;7.870;2022-07-29T03:25:22;6.57;;;6.00;;
7116;SDS011;3600;48.568;7.870;2022-07-29T03:27:49;6.32;;;5.72;;
7116;SDS011;3600;48.568;7.870;2022-07-29T03:30:16;5.97;;;5.57;;
7116;SDS011;3600;48.568;7.870;2022-07-29T03:32:46;6.65;;;5.95;;
7116;SDS011;3600;48.568;7.870;2022-07-29T03:35:14;6.25;;;5.72;;
7116;SDS011;3600;48.568;7.870;2022-07-29T03:37:43;6.82;;;5.90;;
7116;SDS011;3600;48.568;7.870;2022-07-29T03:40:11;5.82;;;5.43;;
7116;SDS011;3600;48.568;7.870;2022-07-29T03:42:41;5.93;;;5.40;;
7116;SDS011;3600;48.568;7.870;2022-07-29T03:45:11;6.88;;;5.60;;
7116;SDS011;3600;48.568;7.870;2022-07-29T03:47:42;6.35;;;5.88;;
7116;SDS011;3600;48.568;7.870;2022-07-29T03:50:17;6.00;;;5.40;;
7116;SDS011;3600;48.568;7.870;2022-07-29T03:52:46;6.20;;;5.68;;
7116;SDS011;3600;48.568;7.870;2022-07-29T03:55:14;6.28;;;5.75;;
7116;SDS011;3600;48.568;7.870;2022-07-29T03:57:42;6.47;;;5.65;;
7116;SDS011;3600;48.568;7.870;2022-07-29T04:00:10;6.03;;;5.43;;
7116;SDS011;3600;48.568;7.870;2022-07-29T04:02:38;6.65;;;5.95;;
7116;SDS011;3600;48.568;7.870;2022-07-29T04:05:05;6.75;;;6.13;;
7116;SDS011;3600;48.568;7.870;2022-07-29T04:07:38;6.82;;;6.28;;
7116;SDS011;3600;48.568;7.870;2022-07-29T04:10:05;6.78;;;6.28;;
7116;SDS011;3600;48.568;7.870;2022-07-29T04:12:32;8.57;;;6.05;;
7116;SDS011;3600;48.568;7.870;2022-07-29T04:14:59;6.38;;;5.88;;
7116;SDS011;3600;48.568;7.870;2022-07-29T04:17:25;7.70;;;5.85;;
7116;SDS011;3600;48.568;7.870;2022-07-29T04:19:52;6.90;;;6.30;;
7116;SDS011;3600;48.568;7.870;2022-07-29T04:22:19;6.20;;;5.70;;
7116;SDS011;3600;48.568;7.870;2022-07-29T04:24:48;8.25;;;6.05;;
7116;SDS011;3600;48.568;7.870;2022-07-29T04:27:14;6.70;;;6.07;;
7116;SDS011;3600;48.568;7.870;2022-07-29T04:29:41;6.80;;;6.18;;
7116;SDS011;3600;48.568;7.870;2022-07-29T04:32:22;6.95;;;6.10;;
7116;SDS011;3600;48.568;7.870;2022-07-29T04:34:49;6.78;;;6.10;;
7116;SDS011;3600;48.568;7.870;2022-07-29T04:37:16;6.78;;;6.20;;
7116;SDS011;3600;48.568;7.870;2022-07-29T04:39:43;7.07;;;6.47;;
7116;SDS011;3600;48.568;7.870;2022-07-29T04:42:09;6.47;;;5.88;;
7116;SDS011;3600;48.568;7.870;2022-07-29T04:44:36;6.45;;;5.95;;
7116;SDS011;3600;48.568;7.870;2022-07-29T04:47:09;6.13;;;5.63;;
7116;SDS011;3600;48.568;7.870;2022-07-29T04:49:38;6.45;;;5.95;;
7116;SDS011;3600;48.568;7.870;2022-07-29T04:52:05;6.47;;;5.88;;
7116;SDS011;3600;48.568;7.870;2022-07-29T04:54:33;6.78;;;5.88;;
7116;SDS011;3600;48.568;7.870;2022-07-29T04:56:59;6.72;;;5.63;;
7116;SDS011;3600;48.568;7.870;2022-07-29T04:59:26;6.72;;;5.82;;
7116;SDS011;3600;48.568;7.870;2022-07-29T05:01:53;5.80;;;5.30;;
7116;SDS011;3600;48.568;7.870;2022-07-29T05:04:20;6.55;;;5.90;;
7116;SDS011;3600;48.568;7.870;2022-07-29T05:06:47;6.03;;;5.43;;
7116;SDS011;3600;48.568;7.870;2022-07-29T05:09:14;7.10;;;6.40;;
7116;SDS011;3600;48.568;7.870;2022-07-29T05:11:40;6.32;;;5.75;;
7116;SDS011;3600;48.568;7.870;2022-07-29T05:14:07;6.30;;;5.80;;
7116;SDS011;3600;48.568;7.870;2022-07-29T05:16:34;6.00;;;5.60;;
7116;SDS011;3600;48.568;7.870;2022-07-29T05:19:01;7.68;;;6.50;;
7116;SDS011;3600;48.568;7.870;2022-07-29T05:21:28;7.35;;;6.60;;
7116;SDS011;3600;48.568;7.870;2022-07-29T05:23:54;7.57;;;6.05;;
7116;SDS011;3600;48.568;7.870;2022-07-29T05:26:21;7.07;;;6.28;;
7116;SDS011;3600;48.568;7.870;2022-07-29T05:28:48;6.97;;;6.38;;
7116;SDS011;3600;48.568;7.870;2022-07-29T05:31:15;7.35;;;6.28;;
7116;SDS011;3600;48.568;7.870;2022-07-29T05:33:42;9.50;;;6.70;;
7116;SDS011;3600;48.568;7.870;2022-07-29T05:36:09;8.82;;;6.00;;
7116;SDS011;3600;48.568;7.870;2022-07-29T05:38:36;7.75;;;6.05;;
7116;SDS011;3600;48.568;7.870;2022-07-29T05:41:04;7.28;;;6.40;;
7116;SDS011;3600;48.568;7.870;2022-07-29T05:43:31;8.68;;;6.18;;
7116;SDS011;3600;48.568;7.870;2022-07-29T05:45:58;10.80;;;6.18;;
7116;SDS011;3600;48.568;7.870;2022-07-29T05:48:25;8.77;;;6.13;;
7116;SDS011;3600;48.568;7.870;2022-07-29T05:50:52;8.43;;;6.43;;
7116;SDS011;3600;48.568;7.870;2022-07-29T05:53:20;6.82;;;5.55;;
7116;SDS011;3600;48.568;7.870;2022-07-29T05:55:47;9.05;;;5.63;;
7116;SDS011;3600;48.568;7.870;2022-07-29T05:58:15;10.30;;;6.10;;
7116;SDS011;3600;48.568;7.870;2022-07-29T06:00:41;8.32;;;5.93;;
7116;SDS011;3600;48.568;7.870;2022-07-29T06:03:08;8.98;;;6.07;;
7116;SDS011;3600;48.568;7.870;2022-07-29T06:05:35;6.30;;;5.70;;
7116;SDS011;3600;48.568;7.870;2022-07-29T06:08:02;6.47;;;5.88;;
7116;SDS011;3600;48.568;7.870;2022-07-29T06:10:32;5.90;;;5.00;;
7116;SDS011;3600;48.568;7.870;2022-07-29T06:13:00;7.05;;;6.10;;
7116;SDS011;3600;48.568;7.870;2022-07-29T06:15:27;6.80;;;5.50;;
7116;SDS011;3600;48.568;7.870;2022-07-29T06:17:54;9.63;;;5.75;;
7116;SDS011;3600;48.568;7.870;2022-07-29T06:20:26;8.38;;;5.35;;
7116;SDS011;3600;48.568;7.870;2022-07-29T06:22:57;8.05;;;5.70;;
7116;SDS011;3600;48.568;7.870;2022-07-29T06:25:24;5.90;;;4.97;;
7116;SDS011;3600;48.568;7.870;2022-07-29T06:27:52;14.07;;;6.20;;
7116;SDS011;3600;48.568;7.870;2022-07-29T06:30:19;6.55;;;5.28;;
7116;SDS011;3600;48.568;7.870;2022-07-29T06:32:45;8.07;;;5.05;;
7116;SDS011;3600;48.568;7.870;2022-07-29T06:35:13;8.88;;;6.13;;
7116;SDS011;3600;48.568;7.870;2022-07-29T06:38:00;8.25;;;5.30;;
7116;SDS011;3600;48.568;7.870;2022-07-29T06:40:43;9.50;;;5.45;;
7116;SDS011;3600;48.568;7.870;2022-07-29T06:43:27;8.88;;;5.38;;
7116;SDS011;3600;48.568;7.870;2022-07-29T06:46:02;5.43;;;4.93;;
7116;SDS011;3600;48.568;7.870;2022-07-29T06:48:32;7.90;;;4.93;;
7116;SDS011;3600;48.568;7.870;2022-07-29T06:51:00;6.22;;;4.75;;
7116;SDS011;3600;48.568;7.870;2022-07-29T06:53:27;8.05;;;5.25;;
7116;SDS011;3600;48.568;7.870;2022-07-29T06:55:54;7.72;;;4.82;;
7116;SDS011;3600;48.568;7.870;2022-07-29T06:58:21;7.97;;;4.80;;
7116;SDS011;3600;48.568;7.870;2022-07-29T07:00:48;6.18;;;4.82;;
7116;SDS011;3600;48.568;7.870;2022-07-29T07:03:16;6.00;;;4.43;;
7116;SDS011;3600;48.568;7.870;2022-07-29T07:05:44;8.10;;;5.30;;
7116;SDS011;3600;48.568;7.870;2022-07-29T07:08:12;5.78;;;4.65;;
7116;SDS011;3600;48.568;7.870;2022-07-29T07:10:39;6.30;;;4.43;;
7116;SDS011;3600;48.568;7.870;2022-07-29T07:13:06;4.82;;;4.43;;
7116;SDS011;3600;48.568;7.870;2022-07-29T07:15:33;6.00;;;4.43;;
7116;SDS011;3600;48.568;7.870;2022-07-29T07:18:05;4.45;;;4.05;;
7116;SDS011;3600;48.568;7.870;2022-07-29T07:20:32;4.45;;;4.00;;
7116;SDS011;3600;48.568;7.870;2022-07-29T07:23:00;5.07;;;4.43;;
7116;SDS011;3600;48.568;7.870;2022-07-29T07:25:27;5.95;;;4.50;;
7116;SDS011;3600;48.568;7.870;2022-07-29T07:27:54;5.13;;;4.63;;
7116;SDS011;3600;48.568;7.870;2022-07-29T07:30:21;4.00;;;3.70;;
7116;SDS011;3600;48.568;7.870;2022-07-29T07:32:48;6.40;;;4.57;;
7116;SDS011;3600;48.568;7.870;2022-07-29T07:35:15;4.28;;;3.50;;
7116;SDS011;3600;48.568;7.870;2022-07-29T07:37:42;4.28;;;3.88;;
7116;SDS011;3600;48.568;7.870;2022-07-29T07:40:10;5.93;;;3.47;;
7116;SDS011;3600;48.568;7.870;2022-07-29T07:42:44;5.35;;;3.60;;
7116;SDS011;3600;48.568;7.870;2022-07-29T07:45:11;7.43;;;3.63;;
7116;SDS011;3600;48.568;7.870;2022-07-29T07:47:41;5.13;;;3.45;;
7116;SDS011;3600;48.568;7.870;2022-07-29T07:50:09;3.20;;;2.90;;
7116;SDS011;3600;48.568;7.870;2022-07-29T07:52:50;3.45;;;3.10;;
7116;SDS011;3600;48.568;7.870;2022-07-29T07:55:18;3.92;;;3.55;;
7116;SDS011;3600;48.568;7.870;2022-07-29T07:57:45;5.68;;;3.38;;
7116;SDS011;3600;48.568;7.870;2022-07-29T08:00:13;3.38;;;3.10;;
7116;SDS011;3600;48.568;7.870;2022-07-29T08:02:41;4.15;;;3.38;;
7116;SDS011;3600;48.568;7.870;2022-07-29T08:05:09;4.57;;;3.08;;
7116;SDS011;3600;48.568;7.870;2022-07-29T08:07:38;6.53;;;3.47;;
7116;SDS011;3600;48.568;7.870;2022-07-29T08:10:05;4.10;;;3.60;;
7116;SDS011;3600;48.568;7.870;2022-07-29T08:12:35;4.47;;;3.42;;
7116;SDS011;3600;48.568;7.870;2022-07-29T08:15:02;5.40;;;3.78;;
7116;SDS011;3600;48.568;7.870;2022-07-29T08:17:29;4.25;;;3.55;;
7116;SDS011;3600;48.568;7.870;2022-07-29T08:20:00;3.90;;;3.58;;
7116;SDS011;3600;48.568;7.870;2022-07-29T08:22:28;4.50;;;4.10;;
7116;SDS011;3600;48.568;7.870;2022-07-29T08:24:54;4.65;;;3.63;;
7116;SDS011;3600;48.568;7.870;2022-07-29T08:27:22;3.65;;;3.40;;
7116;SDS011;3600;48.568;7.870;2022-07-29T08:30:08;5.00;;;3.47;;
7116;SDS011;3600;48.568;7.870;2022-07-29T08:32:36;4.25;;;3.85;;
7116;SDS011;3600;48.568;7.870;2022-07-29T08:35:20;4.90;;;3.75;;
7116;SDS011;3600;48.568;7.870;2022-07-29T08:37:48;4.07;;;3.40;;
7116;SDS011;3600;48.568;7.870;2022-07-29T08:40:15;7.10;;;3.85;;
7116;SDS011;3600;48.568;7.870;2022-07-29T08:42:42;6.82;;;3.95;;
7116;SDS011;3600;48.568;7.870;2022-07-29T08:45:09;3.80;;;3.50;;
7116;SDS011;3600;48.568;7.870;2022-07-29T08:47:36;9.30;;;3.85;;
7116;SDS011;3600;48.568;7.870;2022-07-29T08:50:09;4.55;;;3.88;;
7116;SDS011;3600;48.568;7.870;2022-07-29T08:52:38;6.15;;;3.88;;
7116;SDS011;3600;48.568;7.870;2022-07-29T08:55:07;4.13;;;3.47;;
7116;SDS011;3600;48.568;7.870;2022-07-29T08:57:35;4.43;;;3.80;;
7116;SDS011;3600;48.568;7.870;2022-07-29T09:00:16;4.13;;;3.72;;
7116;SDS011;3600;48.568;7.870;2022-07-29T09:02:45;7.13;;;4.18;;
7116;SDS011;3600;48.568;7.870;2022-07-29T09:05:19;3.60;;;3.30;;
7116;SDS011;3600;48.568;7.870;2022-07-29T09:07:46;7.10;;;3.60;;
7116;SDS011;3600;48.568;7.870;2022-07-29T09:10:14;7.15;;;3.53;;
7116;SDS011;3600;48.568;7.870;2022-07-29T09:12:41;3.47;;;3.25;;
7116;SDS011;3600;48.568;7.870;2022-07-29T09:15:08;4.55;;;3.08;;
7116;SDS011;3600;48.568;7.870;2022-07-29T09:17:41;7.50;;;3.03;;
7116;SDS011;3600;48.568;7.870;2022-07-29T09:20:16;5.90;;;3.85;;
7116;SDS011;3600;48.568;7.870;2022-07-29T09:22:44;4.25;;;3.08;;
7116;SDS011;3600;48.568;7.870;2022-07-29T09:25:32;3.53;;;3.22;;
7116;SDS011;3600;48.568;7.870;2022-07-29T09:30:55;3.83;;;3.30;;
7116;SDS011;3600;48.568;7.870;2022-07-29T09:33:30;3.60;;;3.30;;
7116;SDS011;3600;48.568;7.870;2022-07-29T09:36:04;4.68;;;3.70;;
7116;SDS011;3600;48.568;7.870;2022-07-29T09:38:35;7.30;;;3.75;;
7116;SDS011;3600;48.568;7.870;2022-07-29T09:41:04;5.38;;;3.72;;
7116;SDS011;3600;48.568;7.870;2022-07-29T09:43:32;6.82;;;3.78;;
7116;SDS011;3600;48.568;7.870;2022-07-29T09:46:12;6.70;;;3.60;;
7116;SDS011;3600;48.568;7.870;2022-07-29T09:48:39;5.35;;;3.30;;
7116;SDS011;3600;48.568;7.870;2022-07-29T09:51:16;3.78;;;3.40;;
7116;SDS011;3600;48.568;7.870;2022-07-29T09:53:47;9.85;;;3.30;;
7116;SDS011;3600;48.568;7.870;2022-07-29T09:56:14;4.97;;;3.17;;
7116;SDS011;3600;48.568;7.870;2022-07-29T09:58:41;4.68;;;3.50;;
7116;SDS011;3600;48.568;7.870;2022-07-29T10:01:08;2.88;;;2.67;;
7116;SDS011;3600;48.568;7.870;2022-07-29T10:03:53;3.00;;;2.67;;
7116;SDS011;3600;48.568;7.870;2022-07-29T10:06:20;3.28;;;3.00;;
7116;SDS011;3600;48.568;7.870;2022-07-29T10:08:47;3.47;;;2.70;;
7116;SDS011;3600;48.568;7.870;2022-07-29T10:11:16;3.03;;;2.83;;
7116;SDS011;3600;48.568;7.870;2022-07-29T10:13:44;4.78;;;3.15;;
7116;SDS011;3600;48.568;7.870;2022-07-29T10:16:12;3.22;;;2.92;;
7116;SDS011;3600;48.568;7.870;2022-07-29T10:18:41;3.78;;;3.45;;
7116;SDS011;3600;48.568;7.870;2022-07-29T10:21:09;4.13;;;3.00;;
7116;SDS011;3600;48.568;7.870;2022-07-29T10:23:56;5.70;;;3.20;;
7116;SDS011;3600;48.568;7.870;2022-07-29T10:26:26;4.55;;;2.80;;
7116;SDS011;3600;48.568;7.870;2022-07-29T10:28:55;4.82;;;3.05;;
7116;SDS011;3600;48.568;7.870;2022-07-29T10:31:26;10.50;;;3.30;;
7116;SDS011;3600;48.568;7.870;2022-07-29T10:34:10;3.95;;;3.10;;
7116;SDS011;3600;48.568;7.870;2022-07-29T10:36:56;5.35;;;3.20;;
7116;SDS011;3600;48.568;7.870;2022-07-29T10:39:42;5.20;;;2.88;;
7116;SDS011;3600;48.568;7.870;2022-07-29T10:42:22;3.30;;;3.00;;
7116;SDS011;3600;48.568;7.870;2022-07-29T10:44:59;5.65;;;2.95;;
7116;SDS011;3600;48.568;7.870;2022-07-29T10:47:30;2.67;;;2.50;;
7116;SDS011;3600;48.568;7.870;2022-07-29T10:50:01;3.58;;;3.10;;
7116;SDS011;3600;48.568;7.870;2022-07-29T10:55:35;6.50;;;3.15;;
7116;SDS011;3600;48.568;7.870;2022-07-29T10:58:12;6.60;;;3.15;;
7116;SDS011;3600;48.568;7.870;2022-07-29T11:00:43;4.75;;;3.25;;
7116;SDS011;3600;48.568;7.870;2022-07-29T11:03:41;7.82;;;2.80;;
7116;SDS011;3600;48.568;7.870;2022-07-29T11:06:15;3.20;;;2.90;;
7116;SDS011;3600;48.568;7.870;2022-07-29T11:08:43;3.20;;;2.90;;
7116;SDS011;3600;48.568;7.870;2022-07-29T11:13:55;6.00;;;2.55;;
7116;SDS011;3600;48.568;7.870;2022-07-29T11:16:22;2.90;;;2.60;;
7116;SDS011;3600;48.568;7.870;2022-07-29T11:21:51;3.30;;;2.40;;
7116;SDS011;3600;48.568;7.870;2022-07-29T11:27:14;3.15;;;2.33;;
7116;SDS011;3600;48.568;7.870;2022-07-29T11:29:52;2.63;;;2.42;;
7116;SDS011;3600;48.568;7.870;2022-07-29T11:32:19;3.83;;;2.70;;
7116;SDS011;3600;48.568;7.870;2022-07-29T11:34:49;4.70;;;2.92;;
7116;SDS011;3600;48.568;7.870;2022-07-29T11:43:46;3.05;;;2.78;;
7116;SDS011;3600;48.568;7.870;2022-07-29T11:46:16;3.22;;;2.92;;
7116;SDS011;3600;48.568;7.870;2022-07-29T11:49:04;3.03;;;2.80;;
7116;SDS011;3600;48.568;7.870;2022-07-29T11:51:35;5.60;;;2.90;;
7116;SDS011;3600;48.568;7.870;2022-07-29T11:54:13;4.10;;;2.83;;
7116;SDS011;3600;48.568;7.870;2022-07-29T11:56:52;3.33;;;2.65;;
7116;SDS011;3600;48.568;7.870;2022-07-29T11:59:20;3.30;;;2.42;;
7116;SDS011;3600;48.568;7.870;2022-07-29T12:01:58;4.22;;;2.90;;
7116;SDS011;3600;48.568;7.870;2022-07-29T12:04:49;5.68;;;3.10;;
7116;SDS011;3600;48.568;7.870;2022-07-29T12:07:30;3.40;;;3.10;;
7116;SDS011;3600;48.568;7.870;2022-07-29T12:10:05;3.25;;;2.95;;
7116;SDS011;3600;48.568;7.870;2022-07-29T12:12:36;3.75;;;2.80;;
7116;SDS011;3600;48.568;7.870;2022-07-29T12:15:17;4.28;;;3.03;;
7116;SDS011;3600;48.568;7.870;2022-07-29T12:17:47;3.63;;;2.70;;
7116;SDS011;3600;48.568;7.870;2022-07-29T12:20:21;3.13;;;2.90;;
7116;SDS011;3600;48.568;7.870;2022-07-29T12:22:50;3.17;;;2.90;;
7116;SDS011;3600;48.568;7.870;2022-07-29T12:25:20;3.40;;;2.90;;
7116;SDS011;3600;48.568;7.870;2022-07-29T12:28:04;3.92;;;3.10;;
7116;SDS011;3600;48.568;7.870;2022-07-29T12:30:42;5.60;;;3.40;;
7116;SDS011;3600;48.568;7.870;2022-07-29T12:35:54;4.05;;;2.95;;
7116;SDS011;3600;48.568;7.870;2022-07-29T12:38:42;5.60;;;3.00;;
7116;SDS011;3600;48.568;7.870;2022-07-29T12:41:10;5.18;;;3.00;;
7116;SDS011;3600;48.568;7.870;2022-07-29T12:43:45;3.85;;;2.92;;
7116;SDS011;3600;48.568;7.870;2022-07-29T12:46:18;3.40;;;3.10;;
7116;SDS011;3600;48.568;7.870;2022-07-29T12:48:49;5.25;;;2.92;;
7116;SDS011;3600;48.568;7.870;2022-07-29T12:51:37;3.53;;;2.97;;
7116;SDS011;3600;48.568;7.870;2022-07-29T12:54:06;3.55;;;3.30;;
7116;SDS011;3600;48.568;7.870;2022-07-29T12:56:33;4.65;;;3.30;;
7116;SDS011;3600;48.568;7.870;2022-07-29T12:59:13;4.82;;;3.00;;
7116;SDS011;3600;48.568;7.870;2022-07-29T13:01:48;3.40;;;2.97;;
7116;SDS011;3600;48.568;7.870;2022-07-29T13:04:27;4.00;;;3.00;;
7116;SDS011;3600;48.568;7.870;2022-07-29T13:07:05;4.95;;;3.05;;
7116;SDS011;3600;48.568;7.870;2022-07-29T13:09:39;3.70;;;2.60;;
7116;SDS011;3600;48.568;7.870;2022-07-29T13:12:08;6.03;;;3.35;;
7116;SDS011;3600;48.568;7.870;2022-07-29T13:14:38;3.58;;;3.00;;
7116;SDS011;3600;48.568;7.870;2022-07-29T13:17:20;3.45;;;2.78;;
7116;SDS011;3600;48.568;7.870;2022-07-29T13:19:50;4.00;;;2.97;;
7116;SDS011;3600;48.568;7.870;2022-07-29T13:22:19;3.53;;;2.92;;
7116;SDS011;3600;48.568;7.870;2022-07-29T13:27:20;3.22;;;2.90;;
7116;SDS011;3600;48.568;7.870;2022-07-29T13:29:49;3.42;;;2.83;;
7116;SDS011;3600;48.568;7.870;2022-07-29T13:32:19;3.33;;;2.60;;
7116;SDS011;3600;48.568;7.870;2022-07-29T13:34:54;4.55;;;2.88;;
7116;SDS011;3600;48.568;7.870;2022-07-29T13:37:27;3.33;;;2.92;;
7116;SDS011;3600;48.568;7.870;2022-07-29T13:39:56;5.00;;;2.80;;
7116;SDS011;3600;48.568;7.870;2022-07-29T13:42:23;3.50;;;2.83;;
7116;SDS011;3600;48.568;7.870;2022-07-29T13:44:51;3.05;;;2.85;;
7116;SDS011;3600;48.568;7.870;2022-07-29T13:47:18;4.13;;;3.20;;
7116;SDS011;3600;48.568;7.870;2022-07-29T13:49:46;4.40;;;2.88;;
7116;SDS011;3600;48.568;7.870;2022-07-29T13:52:13;4.53;;;2.65;;
7116;SDS011;3600;48.568;7.870;2022-07-29T13:54:42;5.40;;;3.05;;
7116;SDS011;3600;48.568;7.870;2022-07-29T13:57:09;4.13;;;3.40;;
7116;SDS011;3600;48.568;7.870;2022-07-29T13:59:37;4.85;;;2.95;;
7116;SDS011;3600;48.568;7.870;2022-07-29T14:02:08;4.47;;;2.47;;
7116;SDS011;3600;48.568;7.870;2022-07-29T14:04:40;5.53;;;2.50;;
7116;SDS011;3600;48.568;7.870;2022-07-29T14:07:07;2.97;;;2.67;;
7116;SDS011;3600;48.568;7.870;2022-07-29T14:09:35;5.47;;;2.63;;
7116;SDS011;3600;48.568;7.870;2022-07-29T14:12:07;3.80;;;2.58;;
7116;SDS011;3600;48.568;7.870;2022-07-29T14:14:34;5.57;;;2.70;;
7116;SDS011;3600;48.568;7.870;2022-07-29T14:17:02;2.95;;;2.20;;
7116;SDS011;3600;48.568;7.870;2022-07-29T14:19:32;2.58;;;2.42;;
7116;SDS011;3600;48.568;7.870;2022-07-29T14:22:02;3.45;;;2.10;;
7116;SDS011;3600;48.568;7.870;2022-07-29T14:24:31;3.28;;;2.47;;
7116;SDS011;3600;48.568;7.870;2022-07-29T14:27:02;4.05;;;2.45;;
7116;SDS011;3600;48.568;7.870;2022-07-29T14:29:30;2.75;;;2.50;;
7116;SDS011;3600;48.568;7.870;2022-07-29T14:32:06;3.35;;;2.25;;
7116;SDS011;3600;48.568;7.870;2022-07-29T14:34:34;3.00;;;2.13;;
7116;SDS011;3600;48.568;7.870;2022-07-29T14:37:01;4.05;;;2.42;;
7116;SDS011;3600;48.568;7.870;2022-07-29T14:39:32;3.63;;;2.38;;
7116;SDS011;3600;48.568;7.870;2022-07-29T14:42:08;2.30;;;2.10;;
7116;SDS011;3600;48.568;7.870;2022-07-29T14:44:38;2.63;;;2.08;;
7116;SDS011;3600;48.568;7.870;2022-07-29T14:47:07;7.40;;;2.33;;
7116;SDS011;3600;48.568;7.870;2022-07-29T14:49:35;4.00;;;2.22;;
7116;SDS011;3600;48.568;7.870;2022-07-29T14:52:04;3.00;;;2.00;;
7116;SDS011;3600;48.568;7.870;2022-07-29T14:54:31;5.72;;;2.50;;
7116;SDS011;3600;48.568;7.870;2022-07-29T14:56:58;4.03;;;2.20;;
7116;SDS011;3600;48.568;7.870;2022-07-29T14:59:25;2.65;;;2.10;;
7116;SDS011;3600;48.568;7.870;2022-07-29T15:01:52;3.00;;;2.13;;
7116;SDS011;3600;48.568;7.870;2022-07-29T15:04:19;2.40;;;2.20;;
7116;SDS011;3600;48.568;7.870;2022-07-29T15:06:46;5.38;;;2.50;;
7116;SDS011;3600;48.568;7.870;2022-07-29T15:09:13;3.13;;;2.22;;
7116;SDS011;3600;48.568;7.870;2022-07-29T15:11:40;4.18;;;2.30;;
7116;SDS011;3600;48.568;7.870;2022-07-29T15:14:07;3.78;;;2.53;;
7116;SDS011;3600;48.568;7.870;2022-07-29T15:16:37;7.43;;;2.17;;
7116;SDS011;3600;48.568;7.870;2022-07-29T15:19:09;3.22;;;2.00;;
7116;SDS011;3600;48.568;7.870;2022-07-29T15:21:36;3.05;;;2.05;;
7116;SDS011;3600;48.568;7.870;2022-07-29T15:24:14;3.05;;;2.13;;
7116;SDS011;3600;48.568;7.870;2022-07-29T15:26:45;2.47;;;2.28;;
7116;SDS011;3600;48.568;7.870;2022-07-29T15:29:12;4.22;;;2.00;;
7116;SDS011;3600;48.568;7.870;2022-07-29T15:31:39;2.28;;;2.08;;
7116;SDS011;3600;48.568;7.870;2022-07-29T15:34:06;3.85;;;2.10;;
7116;SDS011;3600;48.568;7.870;2022-07-29T15:36:33;5.57;;;2.20;;
7116;SDS011;3600;48.568;7.870;2022-07-29T15:39:18;6.30;;;2.20;;
7116;SDS011;3600;48.568;7.870;2022-07-29T15:41:45;9.35;;;2.13;;
7116;SDS011;3600;48.568;7.870;2022-07-29T15:44:12;4.05;;;2.30;;
7116;SDS011;3600;48.568;7.870;2022-07-29T15:46:39;3.85;;;2.30;;
7116;SDS011;3600;48.568;7.870;2022-07-29T15:49:25;3.30;;;2.10;;
7116;SDS011;3600;48.568;7.870;2022-07-29T15:52:15;3.60;;;2.15;;
7116;SDS011;3600;48.568;7.870;2022-07-29T15:54:50;4.20;;;2.25;;
7116;SDS011;3600;48.568;7.870;2022-07-29T15:57:17;3.65;;;2.10;;
7116;SDS011;3600;48.568;7.870;2022-07-29T15:59:44;2.40;;;2.17;;
7116;SDS011;3600;48.568;7.870;2022-07-29T16:02:10;3.17;;;2.33;;
7116;SDS011;3600;48.568;7.870;2022-07-29T16:04:37;4.20;;;2.33;;
7116;SDS011;3600;48.568;7.870;2022-07-29T16:07:04;5.50;;;1.80;;
7116;SDS011;3600;48.568;7.870;2022-07-29T16:09:31;2.08;;;1.60;;
7116;SDS011;3600;48.568;7.870;2022-07-29T16:11:58;2.03;;;1.55;;
7116;SDS011;3600;48.568;7.870;2022-07-29T16:14:25;2.03;;;1.88;;
7116;SDS011;3600;48.568;7.870;2022-07-29T16:16:53;2.67;;;1.88;;
7116;SDS011;3600;48.568;7.870;2022-07-29T16:19:21;2.10;;;1.90;;